Time;durP1;ratioP1;P1;durP2;ratioP2;P2;SDS_P1;SDS_P2;PMS_P1;PMS_P2;Temp;Humidity;BMP_temperature;BMP_pressure;BME280_temperature;BME280_humidity;BME280_pressure;Samples;Min_cycle;Max_cycle;Signal;HPM_P1;HPM_P2
2024/03/08 00:00:55;;;;;;;38.10;16.83;;;0.80;99.90;;;;;;4191945;28;20498;-77
2024/03/08 00:02:56;;;;;;;36.33;17.10;;;0.80;99.90;;;;;;4188531;28;20906;-77
2024/03/08 00:04:57;;;;;;;35.00;16.30;;;0.50;99.90;;;;;;4190351;28;20452;-78
2024/03/08 00:06:59;;;;;;;33.27;16.20;;;0.40;99.90;;;;;;4187008;28;20517;-77
2024/03/08 00:09:07;;;;;;;32.83;16.33;;;0.40;99.90;;;;;;4190689;28;20201;-79
2024/03/08 00:11:09;;;;;;;36.07;17.03;;;0.40;99.90;;;;;;4187251;28;21820;-78
2024/03/08 00:13:11;;;;;;;36.23;16.90;;;0.40;99.90;;;;;;4190567;28;20459;-79
2024/03/08 00:15:14;;;;;;;39.80;17.90;;;0.40;99.90;;;;;;4185410;28;20459;-78
2024/03/08 00:17:17;;;;;;;42.37;18.33;;;0.30;99.90;;;;;;4189995;28;21223;-78
2024/03/08 00:19:19;;;;;;;40.97;17.93;;;0.30;99.90;;;;;;4185802;28;20950;-77
2024/03/08 00:21:21;;;;;;;38.37;17.50;;;0.30;99.90;;;;;;4186182;28;20902;-77
2024/03/08 00:23:22;;;;;;;35.10;16.93;;;0.30;99.90;;;;;;4191296;28;20448;-77
2024/03/08 00:25:27;;;;;;;41.17;18.53;;;0.30;99.90;;;;;;4193139;28;20434;-77
2024/03/08 00:27:30;;;;;;;38.93;17.73;;;0.30;99.90;;;;;;4189831;28;20975;-78
2024/03/08 00:29:32;;;;;;;41.20;17.73;;;0.20;99.90;;;;;;4189748;28;20950;-77
2024/03/08 00:31:35;;;;;;;39.43;17.10;;;0.20;99.90;;;;;;4189090;28;20488;-77
2024/03/08 00:33:39;;;;;;;39.63;16.93;;;0.20;99.90;;;;;;4191626;28;20921;-77
2024/03/08 00:35:40;;;;;;;35.17;17.30;;;0.20;99.90;;;;;;4192093;28;21012;-78
2024/03/08 00:37:42;;;;;;;36.03;17.37;;;0.10;99.90;;;;;;4187213;28;20480;-77
2024/03/08 00:39:44;;;;;;;38.33;17.47;;;0.10;99.90;;;;;;4187816;28;20216;-77
2024/03/08 00:41:46;;;;;;;36.20;17.40;;;0.10;99.90;;;;;;4189600;28;20460;-76
2024/03/08 00:43:49;;;;;;;38.80;16.87;;;0.10;99.90;;;;;;4191734;28;20483;-77
2024/03/08 00:45:51;;;;;;;35.73;16.87;;;0.10;99.90;;;;;;4190787;28;20877;-76
2024/03/08 00:47:53;;;;;;;42.80;18.87;;;0.10;99.90;;;;;;4189375;28;20475;-77
2024/03/08 00:49:57;;;;;;;36.57;16.80;;;0.10;99.90;;;;;;4192774;28;20517;-77
2024/03/08 00:51:59;;;;;;;37.70;18.37;;;0.10;99.90;;;;;;4201540;28;20444;-78
2024/03/08 00:54:01;;;;;;;38.93;17.83;;;0.10;99.90;;;;;;4210087;28;20448;-77
2024/03/08 00:56:04;;;;;;;36.10;17.70;;;0.10;99.90;;;;;;4213824;28;20540;-78
2024/03/08 00:58:09;;;;;;;36.97;17.60;;;0.00;99.90;;;;;;4206456;28;20557;-76
2024/03/08 01:00:12;;;;;;;42.87;18.43;;;0.00;99.90;;;;;;4189412;28;20440;-76
2024/03/08 01:02:13;;;;;;;38.13;17.30;;;0.00;99.90;;;;;;4196532;28;20456;-76
2024/03/08 01:04:15;;;;;;;36.80;16.00;;;0.00;99.90;;;;;;4193136;28;20520;-76
2024/03/08 01:06:18;;;;;;;42.20;18.33;;;0.00;99.90;;;;;;4192648;28;20470;-78
2024/03/08 01:08:20;;;;;;;39.00;18.17;;;0.00;99.90;;;;;;4203151;28;20492;-77
2024/03/08 01:10:22;;;;;;;38.00;17.60;;;0.00;99.90;;;;;;4191243;28;20446;-76
2024/03/08 01:12:24;;;;;;;39.27;17.73;;;-0.10;99.90;;;;;;4186711;28;20455;-77
2024/03/08 01:14:25;;;;;;;36.27;16.17;;;-0.10;99.90;;;;;;4189246;28;20548;-76
2024/03/08 01:16:27;;;;;;;39.20;17.27;;;0.00;99.90;;;;;;4191465;28;20533;-77
2024/03/08 01:18:30;;;;;;;38.57;17.13;;;-0.10;99.90;;;;;;4188585;28;20458;-77
2024/03/08 01:20:32;;;;;;;42.47;17.80;;;-0.20;99.90;;;;;;4190278;28;20479;-76
2024/03/08 01:22:35;;;;;;;39.27;17.07;;;-0.20;99.90;;;;;;4188003;28;20445;-77
2024/03/08 01:24:37;;;;;;;39.27;18.03;;;-0.20;99.90;;;;;;4187166;28;20463;-76
2024/03/08 01:26:39;;;;;;;45.20;18.10;;;-0.20;99.90;;;;;;4183733;28;20468;-77
2024/03/08 01:28:41;;;;;;;39.97;18.00;;;-0.20;99.90;;;;;;4192047;28;21133;-78
2024/03/08 01:30:45;;;;;;;37.37;16.53;;;-0.20;99.90;;;;;;4191514;28;20463;-78
2024/03/08 01:32:47;;;;;;;41.70;18.07;;;-0.20;99.90;;;;;;4188760;28;20534;-77
2024/03/08 01:34:49;;;;;;;36.03;16.83;;;-0.30;99.90;;;;;;4188790;28;20493;-77
2024/03/08 01:36:51;;;;;;;42.40;18.50;;;-0.30;99.90;;;;;;4190240;28;20471;-77
2024/03/08 01:38:54;;;;;;;43.50;18.40;;;-0.30;99.90;;;;;;4189341;28;20456;-78
2024/03/08 01:40:56;;;;;;;39.40;17.20;;;-0.20;99.90;;;;;;4188656;28;20451;-77
2024/03/08 01:42:58;;;;;;;38.13;16.80;;;-0.20;99.90;;;;;;4190058;28;20456;-77
2024/03/08 01:45:00;;;;;;;39.73;17.17;;;-0.20;99.90;;;;;;4191875;28;21146;-77
2024/03/08 01:47:02;;;;;;;37.40;16.97;;;-0.20;99.90;;;;;;4191036;28;20470;-78
2024/03/08 01:49:05;;;;;;;38.80;17.80;;;-0.20;99.90;;;;;;4186798;28;20448;-77
2024/03/08 01:51:06;;;;;;;39.20;16.93;;;-0.30;99.90;;;;;;4189613;28;20530;-77
2024/03/08 01:53:09;;;;;;;45.43;17.90;;;-0.30;99.90;;;;;;4187104;28;20448;-77
2024/03/08 01:55:14;;;;;;;39.80;17.47;;;-0.30;99.90;;;;;;4196089;28;20490;-77
2024/03/08 01:57:16;;;;;;;40.03;17.43;;;-0.30;99.90;;;;;;4192630;28;20885;-78
2024/03/08 01:59:19;;;;;;;42.13;18.47;;;-0.30;99.90;;;;;;4190992;28;20465;-78
2024/03/08 02:01:21;;;;;;;37.90;16.77;;;-0.30;99.90;;;;;;4192296;28;20454;-77
2024/03/08 02:03:23;;;;;;;37.43;16.40;;;-0.30;99.90;;;;;;4193105;28;20993;-77
2024/03/08 02:05:26;;;;;;;39.80;17.90;;;-0.20;99.90;;;;;;4190828;28;20451;-77
2024/03/08 02:07:28;;;;;;;37.80;17.60;;;-0.30;99.90;;;;;;4186083;28;21004;-78
2024/03/08 02:09:33;;;;;;;41.83;18.60;;;-0.30;99.90;;;;;;4194451;28;20463;-79
2024/03/08 02:11:36;;;;;;;39.00;17.40;;;-0.40;99.90;;;;;;4188083;28;20454;-77
2024/03/08 02:13:38;;;;;;;38.10;17.40;;;-0.40;99.90;;;;;;4189794;28;20458;-77
2024/03/08 02:15:53;;;;;;;41.17;18.47;;;-0.40;99.90;;;;;;4191163;28;20448;-77
2024/03/08 02:17:55;;;;;;;42.90;17.70;;;-0.30;99.90;;;;;;4187112;28;20488;-77
2024/03/08 02:19:57;;;;;;;43.80;17.97;;;-0.40;99.90;;;;;;4191993;28;20464;-78
2024/03/08 02:22:04;;;;;;;37.40;16.77;;;-0.40;99.90;;;;;;4187835;28;20822;-78
2024/03/08 02:24:07;;;;;;;41.43;18.20;;;-0.30;99.90;;;;;;4187181;28;20465;-77
2024/03/08 02:26:09;;;;;;;39.13;17.67;;;-0.40;99.90;;;;;;4193923;28;20490;-78
2024/03/08 02:28:12;;;;;;;39.27;17.97;;;-0.30;99.90;;;;;;4191736;28;20451;-78
2024/03/08 02:30:14;;;;;;;38.13;16.83;;;-0.40;99.90;;;;;;4188896;28;20504;-77
2024/03/08 02:32:17;;;;;;;40.37;17.77;;;-0.40;99.90;;;;;;4195813;28;20447;-77
2024/03/08 02:34:19;;;;;;;41.37;17.50;;;-0.40;99.90;;;;;;4196149;28;21013;-78
2024/03/08 02:36:24;;;;;;;38.50;16.47;;;-0.30;99.90;;;;;;4194649;28;20945;-77
2024/03/08 02:38:28;;;;;;;43.70;17.33;;;-0.40;99.90;;;;;;4193547;28;20517;-77
2024/03/08 02:40:30;;;;;;;39.03;17.27;;;-0.40;99.90;;;;;;4206988;28;20444;-78
2024/03/08 02:42:32;;;;;;;38.87;17.10;;;-0.50;99.90;;;;;;4193890;28;21076;-78
2024/03/08 02:44:34;;;;;;;38.97;17.67;;;-0.40;99.90;;;;;;4195286;28;20435;-77
2024/03/08 02:46:36;;;;;;;40.67;16.63;;;-0.50;99.90;;;;;;4195716;28;20492;-76
2024/03/08 02:48:37;;;;;;;39.37;16.60;;;-0.50;99.90;;;;;;4194602;28;20454;-77
2024/03/08 02:50:40;;;;;;;40.37;17.43;;;-0.50;99.90;;;;;;4191889;28;20951;-77
2024/03/08 02:52:42;;;;;;;34.73;15.73;;;-0.60;99.90;;;;;;4191988;28;20647;-77
2024/03/08 02:54:46;;;;;;;40.80;17.60;;;-0.60;99.90;;;;;;4190672;28;20448;-77
2024/03/08 02:56:50;;;;;;;40.17;17.37;;;-0.60;99.90;;;;;;4194511;28;20470;-77
2024/03/08 02:58:53;;;;;;;36.43;16.00;;;-0.60;99.90;;;;;;4190174;28;20489;-77
2024/03/08 03:00:57;;;;;;;38.87;16.53;;;-0.70;99.90;;;;;;4189848;28;20472;-78
2024/03/08 03:02:59;;;;;;;36.60;16.17;;;-0.70;99.90;;;;;;4185999;28;20461;-77
2024/03/08 03:05:05;;;;;;;36.20;17.20;;;-0.70;99.90;;;;;;4186050;28;20475;-77
2024/03/08 03:07:07;;;;;;;34.23;15.67;;;-0.70;99.90;;;;;;4188925;28;20486;-77
2024/03/08 03:09:10;;;;;;;36.00;16.30;;;-0.70;99.90;;;;;;4196486;28;20455;-77
2024/03/08 03:11:14;;;;;;;38.10;16.27;;;-0.80;99.90;;;;;;4187734;28;20438;-78
2024/03/08 03:13:16;;;;;;;40.10;17.50;;;-0.80;99.90;;;;;;4192563;28;20502;-78
2024/03/08 03:15:17;;;;;;;38.30;17.07;;;-0.80;99.90;;;;;;4197600;28;20459;-77
2024/03/08 03:17:19;;;;;;;38.77;17.43;;;-0.80;99.90;;;;;;4192017;28;20486;-77
2024/03/08 03:19:22;;;;;;;37.50;16.87;;;-0.60;99.90;;;;;;4189896;28;20507;-77
2024/03/08 03:21:24;;;;;;;39.30;16.87;;;-0.80;99.90;;;;;;4186034;28;20506;-78
2024/03/08 03:23:26;;;;;;;39.20;17.10;;;-0.80;99.90;;;;;;4186171;28;20893;-77
2024/03/08 03:25:33;;;;;;;37.40;16.90;;;-0.80;99.90;;;;;;4189236;28;20486;-77
2024/03/08 03:27:37;;;;;;;40.80;17.30;;;-0.90;99.90;;;;;;4188681;28;20448;-77
2024/03/08 03:29:42;;;;;;;38.77;17.23;;;-0.90;99.90;;;;;;4186485;28;20833;-76
2024/03/08 03:31:45;;;;;;;38.40;16.90;;;-0.90;99.90;;;;;;4187221;28;20450;-76
2024/03/08 03:33:47;;;;;;;37.20;17.40;;;-0.90;99.90;;;;;;4186922;28;20457;-77
2024/03/08 03:35:51;;;;;;;39.83;16.90;;;-0.90;99.90;;;;;;4185245;28;20455;-77
2024/03/08 03:38:05;;;;;;;43.80;17.60;;;-0.90;99.90;;;;;;4183184;28;20480;-78
2024/03/08 03:40:08;;;;;;;39.93;17.23;;;-1.00;99.90;;;;;;4186658;28;20570;-77
2024/03/08 03:42:10;;;;;;;34.60;17.07;;;-1.00;99.90;;;;;;4189398;28;20470;-77
2024/03/08 03:44:13;;;;;;;44.30;17.90;;;-1.00;99.90;;;;;;4189508;28;20547;-78
2024/03/08 03:46:15;;;;;;;37.17;16.77;;;-1.20;99.90;;;;;;4185797;28;20486;-77
2024/03/08 03:48:17;;;;;;;43.00;17.03;;;-1.10;99.90;;;;;;4190782;28;20450;-78
2024/03/08 03:50:20;;;;;;;38.80;16.80;;;-0.50;99.90;;;;;;4204274;28;20493;-77
2024/03/08 03:52:22;;;;;;;42.67;17.60;;;-1.00;99.90;;;;;;4183862;28;20467;-76
2024/03/08 03:54:24;;;;;;;39.13;15.83;;;-1.10;99.90;;;;;;4192237;28;20458;-78
2024/03/08 03:56:29;;;;;;;43.23;17.80;;;-1.10;99.90;;;;;;4192987;28;20519;-78
2024/03/08 03:58:31;;;;;;;38.43;16.53;;;-1.10;99.90;;;;;;4193371;28;20478;-76
2024/03/08 04:00:34;;;;;;;35.50;16.10;;;-1.10;99.90;;;;;;4193066;28;20470;-76
2024/03/08 04:02:35;;;;;;;43.37;17.77;;;-1.10;99.90;;;;;;4191316;28;20462;-77
2024/03/08 04:04:37;;;;;;;37.93;17.13;;;-1.10;99.90;;;;;;4191387;28;20455;-77
2024/03/08 04:06:41;;;;;;;37.53;17.33;;;-1.10;99.90;;;;;;4188202;28;20227;-76
2024/03/08 04:08:43;;;;;;;40.93;17.77;;;-1.10;99.90;;;;;;4188538;28;20461;-77
2024/03/08 04:10:46;;;;;;;43.70;17.93;;;-1.10;99.90;;;;;;4189725;28;20447;-77
2024/03/08 04:12:48;;;;;;;40.67;17.43;;;-1.10;99.90;;;;;;4188469;28;20463;-78
2024/03/08 04:14:50;;;;;;;37.20;15.63;;;-1.10;99.90;;;;;;4189215;28;20505;-78
2024/03/08 04:16:54;;;;;;;41.87;17.97;;;-1.20;99.90;;;;;;4184189;28;21622;-77
2024/03/08 04:18:56;;;;;;;44.43;17.97;;;-1.20;99.90;;;;;;4184654;28;20527;-77
2024/03/08 04:20:58;;;;;;;42.77;19.23;;;-1.20;99.90;;;;;;4188650;28;20459;-78
2024/03/08 04:22:59;;;;;;;38.17;17.30;;;-0.90;99.90;;;;;;4182728;28;21324;-76
2024/03/08 04:25:02;;;;;;;36.33;16.67;;;-1.20;99.90;;;;;;4186058;28;20476;-77
2024/03/08 04:27:04;;;;;;;40.60;16.17;;;-1.20;99.90;;;;;;4187257;28;20471;-76
2024/03/08 04:29:06;;;;;;;39.80;16.47;;;-1.20;99.90;;;;;;4193979;28;20538;-77
2024/03/08 04:31:11;;;;;;;40.70;17.40;;;-1.20;99.90;;;;;;4193432;28;20458;-76
2024/03/08 04:33:16;;;;;;;39.87;16.03;;;-1.20;99.90;;;;;;4193225;28;20459;-78
2024/03/08 04:35:20;;;;;;;38.77;16.20;;;-1.20;99.90;;;;;;4187195;28;20454;-76
2024/03/08 04:37:22;;;;;;;39.70;17.07;;;-1.20;99.90;;;;;;4190417;28;20469;-76
2024/03/08 04:39:24;;;;;;;45.50;16.80;;;-1.20;99.90;;;;;;4188519;28;20570;-77
2024/03/08 04:41:34;;;;;;;43.67;17.73;;;-1.20;99.90;;;;;;4192527;28;21033;-76
2024/03/08 04:43:36;;;;;;;39.83;17.37;;;-1.20;99.90;;;;;;4189218;28;20462;-77
2024/03/08 04:45:39;;;;;;;41.87;17.77;;;-1.20;99.90;;;;;;4187143;28;20463;-76
2024/03/08 04:47:41;;;;;;;41.73;17.47;;;-1.30;99.90;;;;;;4187807;28;20427;-78
2024/03/08 04:49:44;;;;;;;42.17;17.57;;;-1.30;99.90;;;;;;4186009;28;20467;-76
2024/03/08 04:51:46;;;;;;;39.33;17.23;;;-1.30;99.90;;;;;;4187215;28;20675;-76
2024/03/08 04:53:50;;;;;;;40.73;17.53;;;-1.30;99.90;;;;;;4184031;28;20454;-77
2024/03/08 04:55:52;;;;;;;43.90;17.87;;;-1.30;99.90;;;;;;4187315;28;20447;-77
2024/03/08 04:57:53;;;;;;;42.60;18.17;;;-1.30;99.90;;;;;;4189606;28;20453;-76
2024/03/08 04:59:55;;;;;;;42.70;18.03;;;-1.30;99.90;;;;;;4186685;28;20452;-76
2024/03/08 05:01:57;;;;;;;38.27;17.27;;;-1.30;99.90;;;;;;4188331;28;20201;-76
2024/03/08 05:03:59;;;;;;;38.97;16.93;;;-1.30;99.90;;;;;;4202198;28;20480;-78
2024/03/08 05:06:05;;;;;;;42.47;17.47;;;-1.30;99.90;;;;;;4190416;28;20470;-77
2024/03/08 05:08:08;;;;;;;38.40;16.50;;;-1.30;99.90;;;;;;4186522;28;21036;-77
2024/03/08 05:10:10;;;;;;;37.53;16.93;;;-1.40;99.90;;;;;;4188209;28;20449;-76
2024/03/08 05:12:12;;;;;;;39.00;16.60;;;-1.40;99.90;;;;;;4187096;28;20474;-76
2024/03/08 05:14:16;;;;;;;43.40;17.13;;;-1.40;99.90;;;;;;4189545;28;20526;-75
2024/03/08 05:16:18;;;;;;;40.27;17.23;;;-1.40;99.90;;;;;;4186092;28;20459;-76
2024/03/08 05:18:21;;;;;;;38.27;17.37;;;-1.40;99.90;;;;;;4192122;28;20521;-76
2024/03/08 05:20:23;;;;;;;42.70;16.67;;;-1.40;99.90;;;;;;4192419;28;20512;-77
2024/03/08 05:22:29;;;;;;;41.53;17.07;;;-1.40;99.90;;;;;;4201384;28;20451;-76
2024/03/08 05:24:31;;;;;;;38.83;16.93;;;-1.40;99.90;;;;;;4200935;28;20447;-77
2024/03/08 05:26:33;;;;;;;40.47;17.40;;;-1.40;99.90;;;;;;4195436;28;20483;-78
2024/03/08 05:28:35;;;;;;;44.53;17.70;;;-1.20;99.90;;;;;;4206666;28;20443;-76
2024/03/08 05:30:39;;;;;;;40.50;18.17;;;-1.50;99.90;;;;;;4213153;28;20458;-76
2024/03/08 05:32:44;;;;;;;39.87;17.60;;;-1.40;99.90;;;;;;4228835;28;20416;-76
2024/03/08 05:34:46;;;;;;;43.93;18.93;;;-1.50;99.90;;;;;;4219147;28;20517;-77
2024/03/08 05:36:49;;;;;;;40.03;17.30;;;-1.50;99.90;;;;;;4195562;28;20463;-77
2024/03/08 05:38:52;;;;;;;47.33;18.30;;;-1.50;99.90;;;;;;4191344;28;20510;-76
2024/03/08 05:40:55;;;;;;;43.83;18.40;;;-1.50;99.90;;;;;;4188207;28;20849;-76
2024/03/08 05:42:56;;;;;;;36.17;16.83;;;-1.50;99.90;;;;;;4187816;28;20545;-77
2024/03/08 05:44:58;;;;;;;47.23;17.93;;;-1.50;99.90;;;;;;4190454;28;20453;-77
2024/03/08 05:47:00;;;;;;;42.30;17.03;;;-1.50;99.90;;;;;;4192386;28;20468;-77
2024/03/08 05:49:05;;;;;;;41.70;17.90;;;-1.50;99.90;;;;;;4189207;28;20460;-77
2024/03/08 05:51:07;;;;;;;42.23;17.73;;;-1.50;99.90;;;;;;4192611;28;20536;-81
2024/03/08 05:53:09;;;;;;;46.43;18.20;;;-1.50;99.90;;;;;;4193466;28;20496;-78
2024/03/08 05:55:14;;;;;;;42.90;17.83;;;-1.50;99.90;;;;;;4196056;28;20454;-76
2024/03/08 05:57:15;;;;;;;40.13;17.33;;;-1.50;99.90;;;;;;4201179;28;20489;-79
2024/03/08 05:59:18;;;;;;;40.77;16.87;;;-1.50;99.90;;;;;;4191178;28;20513;-83
2024/03/08 06:01:19;;;;;;;46.90;19.03;;;-1.50;99.90;;;;;;4195557;28;21258;-76
2024/03/08 06:03:21;;;;;;;46.93;19.30;;;-1.50;99.90;;;;;;4160843;28;20496;-76
2024/03/08 06:05:24;;;;;;;47.83;18.80;;;-1.50;99.90;;;;;;4182119;28;20200;-76
2024/03/08 06:07:26;;;;;;;51.67;18.87;;;-1.30;99.90;;;;;;4176401;28;20566;-76
2024/03/08 06:09:28;;;;;;;47.30;19.27;;;-1.40;99.90;;;;;;4189602;28;20458;-76
2024/03/08 06:11:34;;;;;;;43.80;18.90;;;-1.40;99.90;;;;;;4190415;28;20821;-77
2024/03/08 06:13:38;;;;;;;46.07;19.47;;;-1.40;99.90;;;;;;4187925;28;20445;-76
2024/03/08 06:15:42;;;;;;;50.20;19.60;;;-1.30;99.90;;;;;;4194740;28;20461;-76
2024/03/08 06:17:44;;;;;;;43.20;18.70;;;-1.40;99.90;;;;;;4193536;28;20454;-77
2024/03/08 06:19:46;;;;;;;45.23;18.47;;;-1.40;99.90;;;;;;4184333;28;20479;-77
2024/03/08 06:21:48;;;;;;;47.93;19.87;;;-1.40;99.90;;;;;;4193469;28;20834;-76
2024/03/08 06:23:54;;;;;;;50.53;19.17;;;-1.30;99.90;;;;;;4187871;28;20494;-77
2024/03/08 06:25:57;;;;;;;45.87;18.60;;;-1.30;99.90;;;;;;4191048;28;20466;-76
2024/03/08 06:28:00;;;;;;;51.13;19.60;;;-1.30;99.90;;;;;;4190871;28;20809;-77
2024/03/08 06:30:02;;;;;;;44.77;19.00;;;-1.30;99.90;;;;;;4189457;28;20527;-77
2024/03/08 06:32:04;;;;;;;51.67;21.27;;;-1.20;99.90;;;;;;4189024;28;20480;-77
2024/03/08 06:34:07;;;;;;;49.83;19.50;;;-1.20;99.90;;;;;;4191993;28;20439;-77
2024/03/08 06:36:11;;;;;;;47.10;19.83;;;-0.80;99.90;;;;;;4185741;28;20512;-77
2024/03/08 06:38:16;;;;;;;54.27;20.93;;;-1.20;99.90;;;;;;4188672;28;20592;-77
2024/03/08 06:40:19;;;;;;;51.23;20.77;;;-1.10;99.90;;;;;;4182926;28;20473;-77
2024/03/08 06:42:21;;;;;;;50.63;20.13;;;-1.10;99.90;;;;;;4192644;28;20977;-77
2024/03/08 06:44:25;;;;;;;48.10;20.53;;;-1.10;99.90;;;;;;4187878;28;20455;-77
2024/03/08 06:46:28;;;;;;;47.67;19.60;;;-1.10;99.90;;;;;;4192885;28;20497;-76
2024/03/08 06:48:30;;;;;;;51.00;19.47;;;-1.10;99.90;;;;;;4191881;28;20492;-77
2024/03/08 06:50:36;;;;;;;50.23;20.47;;;-0.80;99.90;;;;;;4186700;28;21019;-77
2024/03/08 06:52:38;;;;;;;46.07;19.60;;;-1.10;99.90;;;;;;4192679;28;20435;-77
2024/03/08 06:54:40;;;;;;;56.07;20.33;;;-1.10;99.90;;;;;;4185958;28;20456;-77
2024/03/08 06:56:43;;;;;;;47.67;20.60;;;-1.00;99.90;;;;;;4188465;28;20470;-77
2024/03/08 06:58:46;;;;;;;50.80;20.17;;;-1.00;99.90;;;;;;4189093;28;20997;-77
2024/03/08 07:00:52;;;;;;;49.57;20.50;;;-1.00;99.90;;;;;;4183553;28;20490;-77
2024/03/08 07:02:55;;;;;;;51.83;21.20;;;-0.90;99.90;;;;;;4183587;28;20481;-77
2024/03/08 07:04:56;;;;;;;49.13;20.83;;;-0.90;99.90;;;;;;4188021;28;20537;-77
2024/03/08 07:06:58;;;;;;;51.93;20.47;;;-0.90;99.90;;;;;;4189113;28;21019;-77
2024/03/08 07:09:00;;;;;;;54.67;20.87;;;-0.90;99.90;;;;;;4184936;28;20700;-77
2024/03/08 07:11:03;;;;;;;45.80;20.40;;;-0.70;99.90;;;;;;4188924;28;20542;-78
2024/03/08 07:13:05;;;;;;;47.37;20.30;;;-0.80;99.90;;;;;;4186509;28;20500;-77
2024/03/08 07:15:13;;;;;;;45.13;20.27;;;-0.70;99.90;;;;;;4185689;28;20905;-76
2024/03/08 07:17:16;;;;;;;51.23;21.00;;;-0.70;99.90;;;;;;4186385;28;20481;-76
2024/03/08 07:19:19;;;;;;;51.27;22.30;;;-0.70;99.90;;;;;;4188538;28;20991;-76
2024/03/08 07:21:21;;;;;;;53.17;22.00;;;-0.60;99.90;;;;;;4189324;28;20465;-77
2024/03/08 07:25:39;;;;;;;52.10;22.73;;;-0.60;99.90;;;;;;4186037;28;20473;-77
2024/03/08 07:27:40;;;;;;;52.23;21.30;;;-0.50;99.90;;;;;;4191855;28;21822;-77
2024/03/08 07:29:42;;;;;;;48.03;21.33;;;-0.50;99.90;;;;;;4186528;28;20460;-77
2024/03/08 07:31:50;;;;;;;56.93;22.63;;;-0.40;99.90;;;;;;4185751;28;20349;-77
2024/03/08 07:33:54;;;;;;;53.17;21.60;;;-0.40;99.90;;;;;;4187487;28;20542;-77
2024/03/08 07:35:56;;;;;;;48.50;20.83;;;-0.40;99.90;;;;;;4186628;28;20451;-77
2024/03/08 07:37:59;;;;;;;50.13;21.03;;;-0.30;99.90;;;;;;4187196;28;20570;-77
2024/03/08 07:40:01;;;;;;;48.43;20.27;;;-0.30;99.90;;;;;;4191101;28;20960;-78
2024/03/08 07:42:03;;;;;;;48.33;20.27;;;-0.30;99.90;;;;;;4188682;28;20878;-77
2024/03/08 07:44:05;;;;;;;51.83;21.33;;;-0.20;99.90;;;;;;4193994;28;20871;-77
2024/03/08 07:46:06;;;;;;;45.80;21.03;;;-0.10;99.90;;;;;;4194416;28;20491;-77
2024/03/08 07:48:09;;;;;;;51.03;21.07;;;-0.10;99.90;;;;;;4197096;28;20457;-76
2024/03/08 07:50:16;;;;;;;50.40;21.03;;;0.00;99.90;;;;;;4198105;28;20200;-77
2024/03/08 07:52:18;;;;;;;56.63;22.57;;;0.00;99.90;;;;;;4193610;28;20450;-77
2024/03/08 07:54:20;;;;;;;51.47;20.70;;;0.00;99.90;;;;;;4187097;28;20528;-77
2024/03/08 07:56:25;;;;;;;54.27;22.57;;;0.10;99.90;;;;;;4193085;28;20474;-77
2024/03/08 07:58:28;;;;;;;50.23;22.33;;;0.20;99.90;;;;;;4187015;28;20551;-77
2024/03/08 08:00:31;;;;;;;47.67;20.53;;;0.20;99.90;;;;;;4191478;28;20556;-77
2024/03/08 08:02:34;;;;;;;49.80;21.57;;;0.30;99.90;;;;;;4192312;28;20982;-77
2024/03/08 08:04:36;;;;;;;53.53;21.73;;;0.30;99.90;;;;;;4194547;28;20970;-77
2024/03/08 08:06:40;;;;;;;51.50;21.37;;;0.40;99.90;;;;;;4192293;28;20483;-77
2024/03/08 08:08:43;;;;;;;50.93;21.47;;;0.40;99.90;;;;;;4185898;28;20454;-77
2024/03/08 08:10:44;;;;;;;49.07;22.27;;;0.50;99.90;;;;;;4184899;28;20441;-77
2024/03/08 08:12:46;;;;;;;52.20;22.50;;;0.50;99.90;;;;;;4187224;28;20447;-77
2024/03/08 08:14:48;;;;;;;51.23;22.00;;;0.50;99.90;;;;;;4189953;28;20448;-77
2024/03/08 08:16:52;;;;;;;49.97;22.40;;;0.60;99.90;;;;;;4191000;28;20461;-77
2024/03/08 08:18:54;;;;;;;42.83;20.33;;;0.70;99.90;;;;;;4187887;28;20496;-77
2024/03/08 08:20:56;;;;;;;47.83;21.17;;;0.70;99.90;;;;;;4194166;28;20451;-77
2024/03/08 08:22:59;;;;;;;47.43;21.27;;;0.80;99.90;;;;;;4188381;28;20453;-77
2024/03/08 08:25:01;;;;;;;45.57;19.90;;;0.80;99.90;;;;;;4187190;28;20445;-77
2024/03/08 08:27:03;;;;;;;45.10;19.63;;;0.80;99.90;;;;;;4190981;28;20551;-77
2024/03/08 08:29:07;;;;;;;47.77;21.13;;;0.90;99.90;;;;;;4187784;28;20921;-77
2024/03/08 08:31:08;;;;;;;41.67;20.03;;;0.90;99.90;;;;;;4192407;28;20472;-77
2024/03/08 08:33:10;;;;;;;44.00;21.03;;;0.90;99.90;;;;;;4190841;28;20440;-77
2024/03/08 08:35:12;;;;;;;49.63;22.40;;;1.00;99.90;;;;;;4188553;28;20433;-77
2024/03/08 08:37:16;;;;;;;49.10;21.43;;;1.10;99.90;;;;;;4187825;28;20476;-77
2024/03/08 08:39:19;;;;;;;45.10;21.23;;;1.10;99.90;;;;;;4182816;28;20473;-77
2024/03/08 08:41:21;;;;;;;48.13;21.90;;;1.10;99.90;;;;;;4188210;28;20965;-77
2024/03/08 08:43:25;;;;;;;52.90;22.87;;;1.40;99.90;;;;;;4190804;28;20448;-77
2024/03/08 08:45:26;;;;;;;46.63;20.77;;;1.40;99.90;;;;;;4192878;28;20445;-78
2024/03/08 08:47:31;;;;;;;47.97;20.83;;;1.40;99.90;;;;;;4188758;28;20460;-77
2024/03/08 08:49:33;;;;;;;48.07;21.50;;;1.40;99.90;;;;;;4189520;28;20460;-77
2024/03/08 08:51:35;;;;;;;48.63;21.30;;;1.50;99.90;;;;;;4187306;28;20443;-77
2024/03/08 08:53:38;;;;;;;52.30;22.10;;;1.60;99.90;;;;;;4185760;28;20441;-77
2024/03/08 08:55:42;;;;;;;48.53;20.93;;;1.60;99.90;;;;;;4194639;28;20633;-77
2024/03/08 08:57:44;;;;;;;42.70;21.50;;;1.70;99.90;;;;;;4191847;28;20460;-77
2024/03/08 08:59:46;;;;;;;47.77;21.67;;;1.70;99.90;;;;;;4191246;28;20484;-77
2024/03/08 09:01:48;;;;;;;48.70;21.73;;;1.80;99.90;;;;;;4189317;28;20482;-77
2024/03/08 09:03:51;;;;;;;51.63;22.23;;;1.80;99.90;;;;;;4190392;28;20479;-77
2024/03/08 09:05:53;;;;;;;46.17;21.13;;;1.90;99.90;;;;;;4191354;28;20495;-77
2024/03/08 09:07:56;;;;;;;49.70;22.00;;;2.00;99.90;;;;;;4191605;28;20455;-77
2024/03/08 09:09:58;;;;;;;49.57;22.27;;;2.10;99.90;;;;;;4186192;28;20452;-77
2024/03/08 09:12:02;;;;;;;46.43;21.37;;;2.10;99.90;;;;;;4190114;28;20465;-76
2024/03/08 09:14:05;;;;;;;46.33;21.23;;;2.20;99.90;;;;;;4186928;28;20501;-76
2024/03/08 09:16:07;;;;;;;55.27;23.60;;;2.30;99.90;;;;;;4190449;28;20523;-76
2024/03/08 09:18:08;;;;;;;46.13;21.10;;;2.40;99.90;;;;;;4187333;28;20478;-75
2024/03/08 09:20:14;;;;;;;47.80;20.60;;;2.50;99.90;;;;;;4189333;28;20478;-76
2024/03/08 09:22:16;;;;;;;55.20;23.00;;;2.50;99.90;;;;;;4187449;28;20451;-76
2024/03/08 09:24:18;;;;;;;46.77;21.77;;;2.60;99.90;;;;;;4191412;28;20452;-76
2024/03/08 09:26:22;;;;;;;43.23;20.57;;;2.70;99.90;;;;;;4189918;28;20483;-76
2024/03/08 09:28:27;;;;;;;46.03;21.60;;;2.80;99.90;;;;;;4183985;28;20440;-76
2024/03/08 09:30:29;;;;;;;46.30;21.07;;;2.80;99.90;;;;;;4206613;28;20458;-77
2024/03/08 09:32:31;;;;;;;44.30;20.57;;;2.90;99.90;;;;;;4187960;28;20521;-76
2024/03/08 09:34:33;;;;;;;46.87;20.60;;;3.00;99.90;;;;;;4191449;28;20544;-76
2024/03/08 09:36:34;;;;;;;49.70;21.37;;;3.10;99.90;;;;;;4188563;28;20474;-77
2024/03/08 09:38:36;;;;;;;44.03;21.03;;;3.20;99.90;;;;;;4189092;28;20452;-78
2024/03/08 09:40:38;;;;;;;48.90;20.73;;;3.30;99.90;;;;;;4191166;28;20491;-76
2024/03/08 09:42:40;;;;;;;46.50;21.43;;;3.30;99.90;;;;;;4187151;28;20476;-77
2024/03/08 09:44:47;;;;;;;43.00;20.30;;;3.40;99.90;;;;;;4187484;28;20483;-76
2024/03/08 09:46:51;;;;;;;47.17;21.07;;;3.50;99.90;;;;;;4190965;28;20496;-77
2024/03/08 09:48:55;;;;;;;45.37;21.70;;;3.50;99.90;;;;;;4191447;28;20449;-77
2024/03/08 09:50:57;;;;;;;45.83;21.33;;;3.60;99.90;;;;;;4186377;28;20955;-76
2024/03/08 09:52:59;;;;;;;48.87;20.30;;;3.70;99.90;;;;;;4188927;28;20458;-76
2024/03/08 09:55:01;;;;;;;45.53;20.73;;;3.80;99.90;;;;;;4190187;28;20515;-76
2024/03/08 09:57:05;;;;;;;42.93;19.83;;;3.90;99.90;;;;;;4188081;28;20991;-76
2024/03/08 09:59:32;;;;;;;45.23;21.23;;;4.00;99.90;;;;;;4187501;28;20454;-76
2024/03/08 10:01:36;;;;;;;42.80;19.67;;;4.00;99.90;;;;;;4194189;28;20462;-77
2024/03/08 10:03:38;;;;;;;45.13;20.83;;;4.10;99.90;;;;;;4194001;28;20469;-76
2024/03/08 10:05:40;;;;;;;42.17;19.63;;;4.20;99.90;;;;;;4200893;28;20455;-77
2024/03/08 10:07:42;;;;;;;42.20;19.63;;;4.30;99.90;;;;;;4198335;28;20455;-77
2024/03/08 10:09:50;;;;;;;41.83;19.80;;;4.40;99.90;;;;;;4197787;28;20768;-76
2024/03/08 10:11:54;;;;;;;42.20;20.03;;;4.40;99.90;;;;;;4187492;28;20511;-77
2024/03/08 10:13:59;;;;;;;42.53;21.07;;;4.60;99.90;;;;;;4189618;28;20907;-77
2024/03/08 10:16:02;;;;;;;45.63;20.27;;;4.60;99.90;;;;;;4188044;28;20482;-77
2024/03/08 10:18:05;;;;;;;41.40;19.10;;;4.80;99.90;;;;;;4187305;28;20474;-77
2024/03/08 10:20:15;;;;;;;42.97;20.03;;;4.90;99.90;;;;;;4187246;28;20890;-77
2024/03/08 10:22:17;;;;;;;44.00;19.63;;;5.00;99.90;;;;;;4190279;28;20544;-77
2024/03/08 10:24:19;;;;;;;40.20;19.50;;;5.10;99.90;;;;;;4188935;28;21162;-78
2024/03/08 10:26:21;;;;;;;39.87;19.10;;;5.20;99.90;;;;;;4191360;28;21152;-78
2024/03/08 10:28:24;;;;;;;44.10;19.60;;;5.30;99.90;;;;;;4191470;28;21194;-78